Station: Maningrida Airport  

  Atmospheric Gas Attenuation - ITU Rec 676-11   ----------------- dB/100km -----------------
Date Time Temp RH % AH g/m3 Dew Point Wind Direction Speed kph Gust kph Barometer mB Rainfall Since 9am 24GHz 47GHz 76GHz 122GHz 134GHz 241GHz
03/05 03:50 24.1 94 20.57 23.1 7 9 1009.7 0 44.4 43.4 85.6 226.5 252.0 875.2
03/05 03:40 24.4 93 20.7 23.2 7 9 1009.8 0 44.7 43.5 85.9 227.3 253.1 879.0
03/05 03:30 24.6 92 20.71 23.2 7 9 1009.9 0 44.7 43.4 85.7 226.8 252.6 877.3
03/05 03:20 24.8 92 20.94 23.4 6 7 1009.9 0 45.1 43.8 86.6 229.3 255.6 887.9
03/05 03:10 24.8 92 20.94 23.4 11 13 1009.9 0 45.1 43.8 86.6 229.3 255.6 887.9
03/05 03:00 24.8 92 20.94 23.4 11 15 1010 0 45.1 43.8 86.6 229.3 255.6 887.9
03/05 02:50 24.8 92 20.94 23.4 11 13 1009.9 0 45.1 43.8 86.6 229.3 255.6 887.9
03/05 02:40 24.8 92 20.94 23.4 11 15 1009.9 0 45.1 43.8 86.6 229.3 255.6 887.9
03/05 02:30 24.8 92 20.94 23.4 13 17 1010.1 0 45.1 43.8 86.6 229.3 255.6 888.0
03/05 02:20 24.8 91 20.71 23.2 11 13 1010 0 44.7 43.3 85.5 226.3 251.9 875.0
03/05 02:10 24.8 91 20.71 23.2 11 15 1010.1 0 44.6 43.3 85.5 226.3 251.9 875.1
03/05 02:00 24.9 91 20.83 23.3 13 19 1010.1 0 44.9 43.5 86.0 227.5 253.5 880.6
03/05 01:50 25 91 20.95 23.4 15 17 1010.2 0 45.1 43.7 86.5 228.8 255.1 886.2
03/05 01:40 24.9 91 20.83 23.3 13 13 1010.3 0 44.9 43.5 86.0 227.6 253.6 880.7
03/05 01:30 24.9 91 20.83 23.3 13 15 1010.5 0 44.9 43.5 86.0 227.6 253.6 880.9
03/05 01:20 25 90 20.72 23.2 11 13 1010.5 0 44.6 43.3 85.3 225.9 251.5 873.5
03/05 01:10 25 90 20.72 23.2 11 15 1010.7 0 44.6 43.3 85.3 225.9 251.5 873.6
03/05 01:00 25.1 90 20.83 23.3 11 15 1011 0 44.9 43.4 85.8 227.1 253.0 878.8
03/05 00:50 25.2 90 20.95 23.4 11 13 1011 0 45.1 43.6 86.3 228.4 254.6 884.3
03/05 00:40 25.2 89 20.72 23.3 13 15 1011 0 44.6 43.2 85.1 225.3 250.9 871.5
03/05 00:30 25.3 89 20.84 23.4 11 15 1011.3 0 44.9 43.4 85.6 226.7 252.5 877.2
03/05 00:20 25.3 89 20.84 23.4 9 11 1011.3 0 44.9 43.4 85.6 226.7 252.5 877.2
03/05 00:10 25.4 89 20.95 23.5 9 11 1011.4 0 45.1 43.5 86.1 227.8 254.0 882.2
03/05 00:00 25.5 88 20.83 23.4 11 13 1011.6 0 44.8 43.3 85.4 226.0 251.7 874.5
02/05 23:50 25.6 88 20.95 23.5 11 11 1011.4 0 45.1 43.4 85.8 227.2 253.3 879.9
02/05 23:40 25.8 86 20.7 23.3 11 13 1011.4 0 44.5 42.8 84.4 223.4 248.6 863.6
02/05 23:30 25.9 86 20.82 23.4 9 13 1011.5 0 44.7 43.0 84.9 224.6 250.2 869.2
02/05 23:20 26 86 20.94 23.5 9 11 1011.4 0 45.0 43.2 85.3 225.9 251.7 874.6
02/05 23:10 26 86 20.94 23.5 9 11 1011.3 0 45.0 43.2 85.3 225.9 251.7 874.6
02/05 23:00 26.2 85 20.93 23.5 7 11 1011.3 0 44.9 43.1 85.0 225.1 250.9 871.7
02/05 22:50 26.3 85 21.04 23.6 7 9 1011.2 0 45.2 43.2 85.5 226.2 252.3 876.5
02/05 22:40 26.1 87 21.3 23.8 9 11 1011.2 0 45.7 43.9 87.0 230.2 257.1 893.4
02/05 22:30 26.2 87 21.42 23.9 11 13 1011.2 0 46.0 44.0 87.4 231.5 258.7 898.9
02/05 22:20 26.3 87 21.54 24 11 13 1011.1 0 46.2 44.2 87.9 232.8 260.3 904.3
02/05 22:10 26.3 87 21.54 24 11 13 1011 0 46.2 44.2 87.9 232.7 260.3 904.3
02/05 22:00 26.6 86 21.65 24.1 7 11 1011 0 46.4 44.3 88.1 233.2 261.0 906.8
02/05 21:50 26.9 85 21.76 24.2 9 9 1011 0 46.6 44.3 88.3 233.8 261.7 909.3
02/05 21:40 26.9 85 21.76 24.2 7 9 1010.9 0 46.6 44.3 88.3 233.7 261.7 909.2
02/05 21:30 27 85 21.88 24.3 7 9 1011 0 46.9 44.5 88.8 235.0 263.3 914.8
02/05 21:20 27.1 84 21.74 24.2 7 7 1010.8 0 46.6 44.2 87.9 232.8 260.6 905.6
02/05 21:10 27.3 82 21.46 24 7 7 1010.8 0 45.9 43.5 86.3 228.6 255.5 887.7
02/05 21:00 27.4 81 21.31 23.8 9 11 1010.8 0 45.6 43.2 85.5 226.3 252.7 878.3
02/05 20:50 27.5 80 21.17 23.7 9 9 1010.7 0 45.3 42.8 84.7 224.2 250.2 869.4
02/05 20:40 27.6 80 21.28 23.8 11 15 1010.6 0 45.5 43.0 85.1 225.3 251.6 874.2
02/05 20:30 27.6 80 21.28 23.8 9 15 1010.5 0 45.5 43.0 85.1 225.3 251.5 874.2
02/05 20:20 27.6 80 21.28 23.8 7 9 1010.2 0 45.5 43.0 85.1 225.3 251.5 874.0
02/05 20:10 27.6 79 21.02 23.6 7 9 1010.1 0 45.0 42.5 83.8 221.9 247.4 859.8
02/05 20:00 27.7 79 21.13 23.7 9 15 1010.1 0 45.2 42.6 84.2 223.0 248.8 864.6
02/05 19:50 27.7 78 20.87 23.5 9 13 1009.8 0 44.7 42.1 83.0 219.7 244.7 850.4
02/05 19:40 27.7 78 20.87 23.5 13 15 1009.7 0 44.7 42.1 83.0 219.7 244.7 850.3
02/05 19:30 27.7 78 20.87 23.5 11 17 1009.6 0 44.7 42.1 83.0 219.6 244.7 850.3
02/05 19:20 27.7 77 20.6 23.3 9 13 1009.5 0 44.1 41.6 81.7 216.2 240.5 835.7
02/05 19:10 27.8 77 20.71 23.4 9 13 1009.4 0 44.3 41.7 82.1 217.3 241.8 840.4
02/05 19:00 27.9 77 20.83 23.5 9 15 1009.4 0 44.5 41.9 82.5 218.5 243.4 845.7
02/05 18:50 28 76 20.67 23.4 13 17 1009.2 0 44.2 41.6 81.7 216.2 240.5 835.9
02/05 18:40 27.9 79 21.37 23.9 9 9 1009.3 0 45.7 43.0 85.1 225.4 251.7 874.9
02/05 18:30 28 80 21.76 24.2 11 15 1009.2 0 46.5 43.7 86.9 230.0 257.5 895.0
02/05 18:20 28.1 79 21.6 24.1 9 9 1009 0 46.2 43.3 86.0 227.7 254.6 884.9
02/05 18:10 28.3 78 21.57 24.1 9 11 1008.9 0 46.1 43.1 85.6 226.7 253.4 880.9
02/05 18:00 28.5 77 21.52 24.1 13 19 1009 0 45.9 42.9 85.1 225.4 252.0 875.9
02/05 17:50 28.8 75 21.31 23.9 13 15 1008.8 0 45.5 42.4 83.8 221.9 247.7 861.0
02/05 17:40 29 75 21.55 24.1 9 13 1008.8 0 45.9 42.7 84.7 224.3 250.7 871.6
02/05 17:30 29 74 21.26 23.9 17 20 1008.9 0 45.3 42.2 83.3 220.7 246.3 856.1
02/05 17:20 29.6 71 21.07 23.8 15 20 1008.8 0 44.9 41.5 81.8 216.5 241.4 839.2
02/05 17:10 29.9 67 20.21 23.3 15 17 1008.7 0 43.0 39.8 77.5 205.2 227.6 791.2
02/05 17:00 29.9 67 20.21 23.3 15 20 1008.7 0 43.0 39.8 77.5 205.2 227.6 791.2
02/05 16:50 30.2 67 20.54 23.4 15 19 1008.6 0 43.7 40.2 78.7 208.4 231.5 805.0
02/05 16:40 30.7 64 20.16 23.1 15 19 1008.5 0 42.8 39.3 76.5 202.4 224.4 780.3
02/05 16:30 31.1 64 20.6 23.5 11 19 1008.5 0 43.7 39.9 78.0 206.6 229.7 798.6
02/05 16:20 30.8 62 19.63 22.9 11 15 1008.3 0 41.7 38.3 74.0 195.9 216.4 752.4
02/05 16:10 31.4 65 21.26 24 11 11 1008.4 0 45.1 41.0 80.7 213.7 238.5 829.2
02/05 16:00 31.1 63 20.28 23.2 15 20 1008.6 0 43.0 39.3 76.6 202.8 225.0 782.4
02/05 15:50 31.2 61 19.74 22.8 17 19 1008.5 0 41.9 38.3 74.1 196.2 216.9 754.1
02/05 15:40 31.2 61 19.74 23 17 20 1008.5 0 41.9 38.3 74.1 196.2 216.9 754.1
02/05 15:30 31.3 61 19.84 22.9 17 26 1008.5 0 42.1 38.4 74.5 197.1 218.0 758.1
02/05 15:20 31.6 59 19.5 22.6 19 22 1008.5 0 41.4 37.7 72.7 192.4 212.3 738.3
02/05 15:10 31.9 58 19.48 22.6 19 20 1008.6 0 41.3 37.5 72.3 191.4 211.2 734.5
02/05 15:00 31.6 56 18.51 22 17 24 1008.8 0 39.3 36.0 68.5 181.1 198.5 690.2
02/05 14:50 31.9 59 19.82 22.9 19 20 1008.7 0 42.0 38.1 73.8 195.4 216.1 751.4
02/05 14:40 31.7 60 19.94 23 15 17 1008.7 0 42.3 38.4 74.5 197.3 218.3 759.3
02/05 14:30 31.8 60 20.05 23.1 15 24 1008.9 0 42.5 38.6 74.9 198.3 219.7 763.9
02/05 14:20 31.2 58 18.77 22.2 15 17 1008.9 0 39.9 36.6 69.9 185.0 203.2 706.4
02/05 14:10 31.3 58 18.87 22.3 17 19 1009 0 40.1 36.8 70.3 186.0 204.3 710.5
02/05 14:00 31 62 19.85 22.9 20 26 1009.3 0 42.1 38.6 74.8 198.1 219.2 762.0
02/05 13:50 31.7 59 19.61 22.7 17 24 1009.2 0 41.6 37.9 73.1 193.5 213.7 743.2
02/05 13:40 31.7 59 19.61 22.7 17 20 1009.2 0 41.6 37.9 73.1 193.5 213.7 743.2
02/05 13:30 31.8 55 18.38 21.9 19 30 1009.5 0 39.0 35.7 67.8 179.3 196.3 682.5
02/05 13:20 32.4 58 20.01 23.1 17 20 1009.5 0 42.3 38.3 74.2 196.4 217.5 756.3
02/05 13:10 32.6 58 20.22 23.5 15 17 1009.5 0 42.7 38.6 74.9 198.4 219.9 764.7
02/05 13:00 31.8 54 18.04 21.6 17 24 1009.7 0 38.3 35.2 66.4 175.5 191.6 666.4
02/05 12:50 32.1 57 19.35 22.5 19 22 1009.8 0 41.0 37.3 71.6 189.6 209.0 726.9
02/05 12:40 32 59 19.92 23 15 19 1009.9 0 42.2 38.3 74.2 196.5 217.4 756.0
02/05 12:30 32 59 19.92 23 15 24 1010.2 0 42.2 38.3 74.2 196.5 217.4 756.1
02/05 12:20 31.5 59 19.4 22.5 13 17 1010.3 0 41.1 37.7 72.5 191.8 211.4 735.3
02/05 12:10 32.1 59 20.03 23.1 19 24 1010.5 0 42.4 38.5 74.6 197.6 218.8 760.8
02/05 12:00 31.5 57 18.74 22.2 15 22 1010.7 0 39.8 36.5 69.6 184.2 202.2 703.1
02/05 11:50 31.7 56 18.61 22.1 15 20 1010.7 0 39.5 36.2 68.9 182.3 199.9 695.0
02/05 11:40 31.6 60 19.83 22.9 13 20 1010.9 0 42.0 38.4 74.3 196.6 217.4 755.9
02/05 11:30 31.7 60 19.94 23 13 24 1011.2 0 42.2 38.6 74.7 197.7 218.7 760.6
02/05 11:20 31.1 60 19.31 22.4 9 11 1011.1 0 41.0 37.7 72.5 191.8 211.4 735.0

Last Refresh: 03-May-2026 03:59:41

Bureau of Meteorology